Airport View

Enter AWOS ICAO identifier for current METAR.

ex. KFNL

KSPA 262140Z AUTO 22008KT 160V240 7SM SCT055 SCT110 13/07 A2974 RMK AO2

26 Feb 2020 21:30

Frequency: 133.925

Phone: 864-587-2529

Other Area AWOS: KGSP - KGMU - KGYH - KLUX

TAF KGSP 261737Z 2618/2718 22010KT P6SM FEW250 FM262300 25012G19KT P6SM VCSH OVC070 FM270100 26012KT P6SM SCT070 FM271500 31012KT P6SM SKC